sensor_id;sensor_type;location;lat;lon;timestamp;P1;durP1;ratioP1;P2;durP2;ratioP2
75073;SDS011;63652;51.526;5.080;2023-03-31T00:01:10;10.13;;;3.22;;
75073;SDS011;63652;51.526;5.080;2023-03-31T00:03:36;10.05;;;3.28;;
75073;SDS011;63652;51.526;5.080;2023-03-31T00:06:08;14.50;;;3.90;;
75073;SDS011;63652;51.526;5.080;2023-03-31T00:08:36;12.23;;;3.67;;
75073;SDS011;63652;51.526;5.080;2023-03-31T00:11:02;10.45;;;3.50;;
75073;SDS011;63652;51.526;5.080;2023-03-31T00:13:29;8.85;;;3.10;;
75073;SDS011;63652;51.526;5.080;2023-03-31T00:15:56;8.73;;;3.17;;
75073;SDS011;63652;51.526;5.080;2023-03-31T00:18:22;7.15;;;2.67;;
75073;SDS011;63652;51.526;5.080;2023-03-31T00:20:49;9.43;;;2.97;;
75073;SDS011;63652;51.526;5.080;2023-03-31T00:23:16;9.35;;;2.63;;
75073;SDS011;63652;51.526;5.080;2023-03-31T00:25:43;9.13;;;3.42;;
75073;SDS011;63652;51.526;5.080;2023-03-31T00:28:08;9.38;;;3.42;;
75073;SDS011;63652;51.526;5.080;2023-03-31T00:30:34;8.68;;;2.25;;
75073;SDS011;63652;51.526;5.080;2023-03-31T00:33:00;9.20;;;2.75;;
75073;SDS011;63652;51.526;5.080;2023-03-31T00:35:25;7.13;;;2.40;;
75073;SDS011;63652;51.526;5.080;2023-03-31T00:37:51;10.27;;;2.60;;
75073;SDS011;63652;51.526;5.080;2023-03-31T00:40:17;6.78;;;2.30;;
75073;SDS011;63652;51.526;5.080;2023-03-31T00:42:43;10.90;;;2.15;;
75073;SDS011;63652;51.526;5.080;2023-03-31T00:47:49;8.52;;;2.20;;
75073;SDS011;63652;51.526;5.080;2023-03-31T00:50:22;8.98;;;2.05;;
75073;SDS011;63652;51.526;5.080;2023-03-31T00:52:53;7.40;;;1.80;;
75073;SDS011;63652;51.526;5.080;2023-03-31T00:55:22;5.35;;;2.05;;
75073;SDS011;63652;51.526;5.080;2023-03-31T00:57:50;10.05;;;2.60;;
75073;SDS011;63652;51.526;5.080;2023-03-31T01:00:17;9.32;;;2.17;;
75073;SDS011;63652;51.526;5.080;2023-03-31T01:02:50;5.38;;;1.92;;
75073;SDS011;63652;51.526;5.080;2023-03-31T01:05:21;8.18;;;2.08;;
75073;SDS011;63652;51.526;5.080;2023-03-31T01:07:50;9.20;;;2.13;;
75073;SDS011;63652;51.526;5.080;2023-03-31T01:10:15;7.28;;;1.77;;
75073;SDS011;63652;51.526;5.080;2023-03-31T01:12:43;10.10;;;2.72;;
75073;SDS011;63652;51.526;5.080;2023-03-31T01:15:10;9.93;;;2.33;;
75073;SDS011;63652;51.526;5.080;2023-03-31T01:17:36;9.15;;;1.85;;
75073;SDS011;63652;51.526;5.080;2023-03-31T01:28:17;12.50;;;2.90;;
75073;SDS011;63652;51.526;5.080;2023-03-31T01:33:39;11.75;;;2.78;;
75073;SDS011;63652;51.526;5.080;2023-03-31T01:46:57;9.73;;;1.80;;
75073;SDS011;63652;51.526;5.080;2023-03-31T01:49:34;6.55;;;2.05;;
75073;SDS011;63652;51.526;5.080;2023-03-31T01:52:29;11.90;;;1.75;;
75073;SDS011;63652;51.526;5.080;2023-03-31T01:55:00;13.95;;;2.22;;
75073;SDS011;63652;51.526;5.080;2023-03-31T02:00:16;12.60;;;2.60;;
75073;SDS011;63652;51.526;5.080;2023-03-31T02:02:54;10.90;;;2.17;;
75073;SDS011;63652;51.526;5.080;2023-03-31T02:05:39;6.93;;;1.80;;
75073;SDS011;63652;51.526;5.080;2023-03-31T02:08:40;11.85;;;2.00;;
75073;SDS011;63652;51.526;5.080;2023-03-31T02:11:09;9.45;;;1.92;;
75073;SDS011;63652;51.526;5.080;2023-03-31T02:13:35;9.35;;;1.95;;
75073;SDS011;63652;51.526;5.080;2023-03-31T02:16:04;7.68;;;1.92;;
75073;SDS011;63652;51.526;5.080;2023-03-31T02:18:31;11.65;;;2.33;;
75073;SDS011;63652;51.526;5.080;2023-03-31T02:20:57;5.38;;;1.45;;
75073;SDS011;63652;51.526;5.080;2023-03-31T02:23:24;7.63;;;1.60;;
75073;SDS011;63652;51.526;5.080;2023-03-31T02:28:21;7.22;;;2.10;;
75073;SDS011;63652;51.526;5.080;2023-03-31T02:33:26;10.18;;;2.75;;
75073;SDS011;63652;51.526;5.080;2023-03-31T02:35:52;7.60;;;1.60;;
75073;SDS011;63652;51.526;5.080;2023-03-31T02:38:17;7.00;;;1.60;;
75073;SDS011;63652;51.526;5.080;2023-03-31T02:40:43;8.23;;;2.88;;
75073;SDS011;63652;51.526;5.080;2023-03-31T02:43:08;10.52;;;1.63;;
75073;SDS011;63652;51.526;5.080;2023-03-31T02:45:38;8.38;;;1.88;;
75073;SDS011;63652;51.526;5.080;2023-03-31T02:48:18;7.90;;;1.85;;
75073;SDS011;63652;51.526;5.080;2023-03-31T02:51:00;11.38;;;1.77;;
75073;SDS011;63652;51.526;5.080;2023-03-31T02:59:20;8.88;;;1.90;;
75073;SDS011;63652;51.526;5.080;2023-03-31T03:02:17;7.47;;;1.95;;
75073;SDS011;63652;51.526;5.080;2023-03-31T03:10:31;12.27;;;3.67;;
75073;SDS011;63652;51.526;5.080;2023-03-31T03:15:59;11.70;;;3.42;;
75073;SDS011;63652;51.526;5.080;2023-03-31T03:18:27;8.82;;;2.42;;
75073;SDS011;63652;51.526;5.080;2023-03-31T03:20:53;12.60;;;2.30;;
75073;SDS011;63652;51.526;5.080;2023-03-31T03:23:18;13.60;;;2.85;;
75073;SDS011;63652;51.526;5.080;2023-03-31T03:25:44;7.35;;;2.03;;
75073;SDS011;63652;51.526;5.080;2023-03-31T03:28:10;14.18;;;2.60;;
75073;SDS011;63652;51.526;5.080;2023-03-31T03:30:36;9.43;;;2.17;;
75073;SDS011;63652;51.526;5.080;2023-03-31T03:33:02;17.15;;;3.08;;
75073;SDS011;63652;51.526;5.080;2023-03-31T03:35:30;9.70;;;2.20;;
75073;SDS011;63652;51.526;5.080;2023-03-31T03:37:55;7.30;;;1.85;;
75073;SDS011;63652;51.526;5.080;2023-03-31T03:40:21;12.38;;;2.08;;
75073;SDS011;63652;51.526;5.080;2023-03-31T03:42:46;11.20;;;1.88;;
75073;SDS011;63652;51.526;5.080;2023-03-31T03:45:11;6.53;;;2.17;;
75073;SDS011;63652;51.526;5.080;2023-03-31T03:47:37;8.23;;;2.08;;
75073;SDS011;63652;51.526;5.080;2023-03-31T03:50:02;11.02;;;1.70;;
75073;SDS011;63652;51.526;5.080;2023-03-31T03:52:28;8.43;;;2.38;;
75073;SDS011;63652;51.526;5.080;2023-03-31T03:54:53;4.22;;;1.48;;
75073;SDS011;63652;51.526;5.080;2023-03-31T03:57:19;10.18;;;1.80;;
75073;SDS011;63652;51.526;5.080;2023-03-31T03:59:45;4.03;;;1.10;;
75073;SDS011;63652;51.526;5.080;2023-03-31T04:02:10;8.75;;;1.75;;
75073;SDS011;63652;51.526;5.080;2023-03-31T04:04:35;7.30;;;1.50;;
75073;SDS011;63652;51.526;5.080;2023-03-31T04:07:01;4.28;;;1.42;;
75073;SDS011;63652;51.526;5.080;2023-03-31T04:09:26;7.25;;;1.70;;
75073;SDS011;63652;51.526;5.080;2023-03-31T04:11:52;8.27;;;1.48;;
75073;SDS011;63652;51.526;5.080;2023-03-31T04:14:17;8.95;;;1.80;;
75073;SDS011;63652;51.526;5.080;2023-03-31T04:16:43;5.75;;;1.20;;
75073;SDS011;63652;51.526;5.080;2023-03-31T04:19:11;9.23;;;1.63;;
75073;SDS011;63652;51.526;5.080;2023-03-31T04:21:38;9.60;;;1.50;;
75073;SDS011;63652;51.526;5.080;2023-03-31T04:24:10;7.00;;;1.83;;
75073;SDS011;63652;51.526;5.080;2023-03-31T04:26:40;8.88;;;2.00;;
75073;SDS011;63652;51.526;5.080;2023-03-31T04:29:09;8.27;;;1.90;;
75073;SDS011;63652;51.526;5.080;2023-03-31T04:31:36;9.93;;;2.15;;
75073;SDS011;63652;51.526;5.080;2023-03-31T04:34:03;8.85;;;2.25;;
75073;SDS011;63652;51.526;5.080;2023-03-31T04:36:31;8.65;;;2.33;;
75073;SDS011;63652;51.526;5.080;2023-03-31T04:38:57;6.55;;;1.95;;
75073;SDS011;63652;51.526;5.080;2023-03-31T04:41:23;2.67;;;1.10;;
75073;SDS011;63652;51.526;5.080;2023-03-31T04:43:51;4.93;;;1.60;;
75073;SDS011;63652;51.526;5.080;2023-03-31T04:46:16;6.53;;;2.10;;
75073;SDS011;63652;51.526;5.080;2023-03-31T04:48:42;9.90;;;1.52;;
75073;SDS011;63652;51.526;5.080;2023-03-31T04:51:07;5.90;;;2.15;;
75073;SDS011;63652;51.526;5.080;2023-03-31T04:53:33;7.10;;;1.88;;
75073;SDS011;63652;51.526;5.080;2023-03-31T04:55:59;7.95;;;1.70;;
75073;SDS011;63652;51.526;5.080;2023-03-31T04:58:24;7.75;;;1.27;;
75073;SDS011;63652;51.526;5.080;2023-03-31T05:00:50;9.52;;;1.77;;
75073;SDS011;63652;51.526;5.080;2023-03-31T05:03:16;10.73;;;2.35;;
75073;SDS011;63652;51.526;5.080;2023-03-31T05:05:41;5.30;;;1.80;;
75073;SDS011;63652;51.526;5.080;2023-03-31T05:08:07;10.10;;;1.75;;
75073;SDS011;63652;51.526;5.080;2023-03-31T05:10:32;5.65;;;1.30;;
75073;SDS011;63652;51.526;5.080;2023-03-31T05:12:58;8.90;;;2.20;;
75073;SDS011;63652;51.526;5.080;2023-03-31T05:15:23;8.80;;;1.60;;
75073;SDS011;63652;51.526;5.080;2023-03-31T05:17:49;3.75;;;1.17;;
75073;SDS011;63652;51.526;5.080;2023-03-31T05:20:18;5.32;;;1.40;;
75073;SDS011;63652;51.526;5.080;2023-03-31T05:22:44;7.07;;;1.85;;
75073;SDS011;63652;51.526;5.080;2023-03-31T05:25:10;3.97;;;1.15;;
75073;SDS011;63652;51.526;5.080;2023-03-31T05:27:38;5.85;;;1.52;;
75073;SDS011;63652;51.526;5.080;2023-03-31T05:30:04;6.72;;;1.20;;
75073;SDS011;63652;51.526;5.080;2023-03-31T05:32:30;3.83;;;1.48;;
75073;SDS011;63652;51.526;5.080;2023-03-31T05:34:55;4.45;;;1.02;;
75073;SDS011;63652;51.526;5.080;2023-03-31T05:37:25;6.18;;;1.00;;
75073;SDS011;63652;51.526;5.080;2023-03-31T05:39:51;4.47;;;1.23;;
75073;SDS011;63652;51.526;5.080;2023-03-31T05:42:17;8.45;;;1.33;;
75073;SDS011;63652;51.526;5.080;2023-03-31T05:44:43;5.80;;;1.63;;
75073;SDS011;63652;51.526;5.080;2023-03-31T05:47:09;3.75;;;1.65;;
75073;SDS011;63652;51.526;5.080;2023-03-31T05:49:34;7.07;;;1.73;;
75073;SDS011;63652;51.526;5.080;2023-03-31T05:52:00;5.18;;;1.30;;
75073;SDS011;63652;51.526;5.080;2023-03-31T05:54:25;4.22;;;1.10;;
75073;SDS011;63652;51.526;5.080;2023-03-31T05:56:51;6.78;;;1.67;;
75073;SDS011;63652;51.526;5.080;2023-03-31T05:59:17;3.17;;;1.20;;
75073;SDS011;63652;51.526;5.080;2023-03-31T06:01:42;5.00;;;1.35;;
75073;SDS011;63652;51.526;5.080;2023-03-31T06:04:07;4.45;;;2.10;;
75073;SDS011;63652;51.526;5.080;2023-03-31T06:06:33;7.32;;;1.40;;
75073;SDS011;63652;51.526;5.080;2023-03-31T06:08:59;4.30;;;1.35;;
75073;SDS011;63652;51.526;5.080;2023-03-31T06:11:24;8.68;;;1.88;;
75073;SDS011;63652;51.526;5.080;2023-03-31T06:13:50;8.90;;;2.83;;
75073;SDS011;63652;51.526;5.080;2023-03-31T06:16:16;4.85;;;1.48;;
75073;SDS011;63652;51.526;5.080;2023-03-31T06:18:42;3.85;;;1.13;;
75073;SDS011;63652;51.526;5.080;2023-03-31T06:21:12;5.57;;;1.38;;
75073;SDS011;63652;51.526;5.080;2023-03-31T06:23:38;8.98;;;1.38;;
75073;SDS011;63652;51.526;5.080;2023-03-31T06:26:05;7.78;;;1.33;;
75073;SDS011;63652;51.526;5.080;2023-03-31T06:28:32;5.65;;;1.20;;
75073;SDS011;63652;51.526;5.080;2023-03-31T06:31:02;3.85;;;1.15;;
75073;SDS011;63652;51.526;5.080;2023-03-31T06:33:28;4.00;;;1.60;;
75073;SDS011;63652;51.526;5.080;2023-03-31T06:35:54;6.78;;;1.35;;
75073;SDS011;63652;51.526;5.080;2023-03-31T06:38:20;4.30;;;1.40;;
75073;SDS011;63652;51.526;5.080;2023-03-31T06:40:45;5.20;;;1.58;;
75073;SDS011;63652;51.526;5.080;2023-03-31T06:43:11;4.57;;;1.60;;
75073;SDS011;63652;51.526;5.080;2023-03-31T06:45:36;3.50;;;2.17;;
75073;SDS011;63652;51.526;5.080;2023-03-31T06:48:02;4.28;;;1.30;;
75073;SDS011;63652;51.526;5.080;2023-03-31T06:50:27;2.58;;;0.95;;
75073;SDS011;63652;51.526;5.080;2023-03-31T06:52:52;8.38;;;1.27;;
75073;SDS011;63652;51.526;5.080;2023-03-31T06:55:19;6.43;;;1.50;;
75073;SDS011;63652;51.526;5.080;2023-03-31T06:57:44;5.55;;;1.35;;
75073;SDS011;63652;51.526;5.080;2023-03-31T07:00:10;7.80;;;1.88;;
75073;SDS011;63652;51.526;5.080;2023-03-31T07:02:36;6.78;;;1.70;;
75073;SDS011;63652;51.526;5.080;2023-03-31T07:05:01;9.25;;;1.83;;
75073;SDS011;63652;51.526;5.080;2023-03-31T07:07:29;7.05;;;1.60;;
75073;SDS011;63652;51.526;5.080;2023-03-31T07:09:56;7.85;;;2.10;;
75073;SDS011;63652;51.526;5.080;2023-03-31T07:12:21;6.60;;;2.17;;
75073;SDS011;63652;51.526;5.080;2023-03-31T07:14:46;13.18;;;3.33;;
75073;SDS011;63652;51.526;5.080;2023-03-31T07:17:12;6.20;;;2.28;;
75073;SDS011;63652;51.526;5.080;2023-03-31T07:19:37;8.52;;;2.55;;
75073;SDS011;63652;51.526;5.080;2023-03-31T07:22:06;13.68;;;2.45;;
75073;SDS011;63652;51.526;5.080;2023-03-31T07:24:34;10.40;;;2.75;;
75073;SDS011;63652;51.526;5.080;2023-03-31T07:26:59;8.85;;;2.28;;
75073;SDS011;63652;51.526;5.080;2023-03-31T07:29:25;9.02;;;2.42;;
75073;SDS011;63652;51.526;5.080;2023-03-31T07:31:50;8.75;;;2.08;;
75073;SDS011;63652;51.526;5.080;2023-03-31T07:34:16;12.00;;;2.72;;
75073;SDS011;63652;51.526;5.080;2023-03-31T07:36:42;10.38;;;2.28;;
75073;SDS011;63652;51.526;5.080;2023-03-31T07:39:07;8.95;;;2.15;;
75073;SDS011;63652;51.526;5.080;2023-03-31T07:41:33;20.98;;;2.88;;
75073;SDS011;63652;51.526;5.080;2023-03-31T07:43:58;13.48;;;2.35;;
75073;SDS011;63652;51.526;5.080;2023-03-31T07:46:25;9.38;;;2.28;;
75073;SDS011;63652;51.526;5.080;2023-03-31T07:48:51;10.85;;;2.33;;
75073;SDS011;63652;51.526;5.080;2023-03-31T07:51:18;12.95;;;3.90;;
75073;SDS011;63652;51.526;5.080;2023-03-31T07:53:45;12.57;;;2.47;;
75073;SDS011;63652;51.526;5.080;2023-03-31T07:56:11;10.55;;;2.00;;
75073;SDS011;63652;51.526;5.080;2023-03-31T07:58:36;15.38;;;2.58;;
75073;SDS011;63652;51.526;5.080;2023-03-31T08:01:02;16.40;;;3.42;;
75073;SDS011;63652;51.526;5.080;2023-03-31T08:03:28;16.63;;;2.65;;
75073;SDS011;63652;51.526;5.080;2023-03-31T08:05:53;13.80;;;2.45;;
75073;SDS011;63652;51.526;5.080;2023-03-31T08:08:19;12.18;;;2.20;;
75073;SDS011;63652;51.526;5.080;2023-03-31T08:10:45;13.68;;;2.47;;
75073;SDS011;63652;51.526;5.080;2023-03-31T08:13:11;11.43;;;2.50;;
75073;SDS011;63652;51.526;5.080;2023-03-31T08:15:36;16.40;;;3.70;;
75073;SDS011;63652;51.526;5.080;2023-03-31T08:18:02;16.35;;;3.22;;
75073;SDS011;63652;51.526;5.080;2023-03-31T08:20:28;17.60;;;3.15;;
75073;SDS011;63652;51.526;5.080;2023-03-31T08:22:53;13.23;;;3.00;;
75073;SDS011;63652;51.526;5.080;2023-03-31T08:25:19;12.55;;;2.53;;
75073;SDS011;63652;51.526;5.080;2023-03-31T08:27:45;14.35;;;2.85;;
75073;SDS011;63652;51.526;5.080;2023-03-31T08:30:13;13.68;;;3.25;;
75073;SDS011;63652;51.526;5.080;2023-03-31T08:32:38;11.98;;;2.42;;
75073;SDS011;63652;51.526;5.080;2023-03-31T08:35:04;12.75;;;2.53;;
75073;SDS011;63652;51.526;5.080;2023-03-31T08:37:30;12.85;;;3.67;;
75073;SDS011;63652;51.526;5.080;2023-03-31T08:39:56;11.73;;;2.80;;
75073;SDS011;63652;51.526;5.080;2023-03-31T08:42:24;15.57;;;3.38;;
75073;SDS011;63652;51.526;5.080;2023-03-31T08:45:01;15.75;;;2.50;;
75073;SDS011;63652;51.526;5.080;2023-03-31T08:47:29;13.98;;;3.45;;
75073;SDS011;63652;51.526;5.080;2023-03-31T08:49:57;19.98;;;3.63;;
75073;SDS011;63652;51.526;5.080;2023-03-31T08:52:33;12.38;;;2.05;;
75073;SDS011;63652;51.526;5.080;2023-03-31T08:55:05;14.43;;;3.10;;
75073;SDS011;63652;51.526;5.080;2023-03-31T09:00:09;16.60;;;2.55;;
75073;SDS011;63652;51.526;5.080;2023-03-31T09:08:33;17.33;;;3.10;;
75073;SDS011;63652;51.526;5.080;2023-03-31T09:18:59;7.55;;;2.33;;
75073;SDS011;63652;51.526;5.080;2023-03-31T09:21:36;12.73;;;2.85;;
75073;SDS011;63652;51.526;5.080;2023-03-31T09:26:33;15.45;;;2.90;;
75073;SDS011;63652;51.526;5.080;2023-03-31T09:29:00;11.38;;;2.42;;
75073;SDS011;63652;51.526;5.080;2023-03-31T09:31:28;8.65;;;1.92;;
75073;SDS011;63652;51.526;5.080;2023-03-31T09:33:57;8.48;;;1.50;;
75073;SDS011;63652;51.526;5.080;2023-03-31T09:36:25;11.95;;;1.80;;
75073;SDS011;63652;51.526;5.080;2023-03-31T09:38:51;9.95;;;1.90;;
75073;SDS011;63652;51.526;5.080;2023-03-31T09:41:17;10.77;;;2.17;;
75073;SDS011;63652;51.526;5.080;2023-03-31T09:43:46;11.45;;;2.15;;
75073;SDS011;63652;51.526;5.080;2023-03-31T09:46:16;15.32;;;2.65;;
75073;SDS011;63652;51.526;5.080;2023-03-31T09:48:49;9.50;;;1.48;;
75073;SDS011;63652;51.526;5.080;2023-03-31T09:51:27;9.40;;;2.35;;
75073;SDS011;63652;51.526;5.080;2023-03-31T09:53:57;6.00;;;1.40;;
75073;SDS011;63652;51.526;5.080;2023-03-31T09:56:30;9.68;;;2.35;;
75073;SDS011;63652;51.526;5.080;2023-03-31T09:59:00;12.48;;;1.95;;
75073;SDS011;63652;51.526;5.080;2023-03-31T10:01:26;9.73;;;2.35;;
75073;SDS011;63652;51.526;5.080;2023-03-31T10:03:53;6.38;;;1.60;;
75073;SDS011;63652;51.526;5.080;2023-03-31T10:06:20;11.77;;;2.45;;
75073;SDS011;63652;51.526;5.080;2023-03-31T10:08:48;11.77;;;1.80;;
75073;SDS011;63652;51.526;5.080;2023-03-31T10:11:15;10.43;;;1.63;;
75073;SDS011;63652;51.526;5.080;2023-03-31T10:18:53;9.93;;;1.30;;
75073;SDS011;63652;51.526;5.080;2023-03-31T10:21:22;9.13;;;1.55;;
75073;SDS011;63652;51.526;5.080;2023-03-31T10:23:52;7.90;;;1.42;;
75073;SDS011;63652;51.526;5.080;2023-03-31T10:26:21;11.90;;;2.20;;
75073;SDS011;63652;51.526;5.080;2023-03-31T10:28:50;10.93;;;3.40;;
75073;SDS011;63652;51.526;5.080;2023-03-31T10:31:16;10.43;;;1.75;;
75073;SDS011;63652;51.526;5.080;2023-03-31T10:33:44;7.90;;;1.65;;
75073;SDS011;63652;51.526;5.080;2023-03-31T10:36:26;10.38;;;2.10;;
75073;SDS011;63652;51.526;5.080;2023-03-31T10:38:52;9.73;;;2.95;;
75073;SDS011;63652;51.526;5.080;2023-03-31T10:41:19;13.90;;;2.85;;
75073;SDS011;63652;51.526;5.080;2023-03-31T10:43:49;8.35;;;2.38;;
75073;SDS011;63652;51.526;5.080;2023-03-31T10:46:18;9.45;;;2.33;;
75073;SDS011;63652;51.526;5.080;2023-03-31T10:48:44;8.65;;;2.03;;
75073;SDS011;63652;51.526;5.080;2023-03-31T10:51:14;10.48;;;1.80;;
75073;SDS011;63652;51.526;5.080;2023-03-31T10:53:46;11.77;;;2.55;;
75073;SDS011;63652;51.526;5.080;2023-03-31T11:02:08;11.45;;;2.17;;
75073;SDS011;63652;51.526;5.080;2023-03-31T11:07:15;9.43;;;1.60;;
75073;SDS011;63652;51.526;5.080;2023-03-31T11:12:41;11.88;;;2.05;;
75073;SDS011;63652;51.526;5.080;2023-03-31T11:15:12;8.20;;;1.83;;
75073;SDS011;63652;51.526;5.080;2023-03-31T11:18:02;10.55;;;1.67;;
75073;SDS011;63652;51.526;5.080;2023-03-31T11:20:55;13.52;;;2.92;;
75073;SDS011;63652;51.526;5.080;2023-03-31T11:26:27;11.95;;;2.42;;
75073;SDS011;63652;51.526;5.080;2023-03-31T11:29:10;9.23;;;1.63;;
75073;SDS011;63652;51.526;5.080;2023-03-31T11:35:17;14.45;;;3.22;;
75073;SDS011;63652;51.526;5.080;2023-03-31T11:46:17;7.93;;;1.90;;
75073;SDS011;63652;51.526;5.080;2023-03-31T11:48:56;8.00;;;2.28;;
75073;SDS011;63652;51.526;5.080;2023-03-31T11:51:28;11.15;;;2.25;;
75073;SDS011;63652;51.526;5.080;2023-03-31T11:53:56;11.38;;;2.28;;
75073;SDS011;63652;51.526;5.080;2023-03-31T11:56:24;7.85;;;2.75;;
75073;SDS011;63652;51.526;5.080;2023-03-31T11:58:57;12.93;;;2.85;;
75073;SDS011;63652;51.526;5.080;2023-03-31T12:01:33;12.38;;;1.67;;
75073;SDS011;63652;51.526;5.080;2023-03-31T12:06:48;10.95;;;1.85;;
75073;SDS011;63652;51.526;5.080;2023-03-31T12:14:46;7.95;;;1.88;;
75073;SDS011;63652;51.526;5.080;2023-03-31T12:17:18;7.35;;;1.63;;
75073;SDS011;63652;51.526;5.080;2023-03-31T12:19:56;5.32;;;1.88;;
75073;SDS011;63652;51.526;5.080;2023-03-31T12:22:31;7.57;;;1.95;;
75073;SDS011;63652;51.526;5.080;2023-03-31T12:24:58;7.32;;;1.50;;
75073;SDS011;63652;51.526;5.080;2023-03-31T12:27:26;8.90;;;2.08;;
75073;SDS011;63652;51.526;5.080;2023-03-31T12:30:03;7.65;;;1.23;;
75073;SDS011;63652;51.526;5.080;2023-03-31T12:32:39;5.28;;;1.25;;
75073;SDS011;63652;51.526;5.080;2023-03-31T12:35:19;8.38;;;1.73;;
75073;SDS011;63652;51.526;5.080;2023-03-31T12:40:26;10.00;;;1.90;;
75073;SDS011;63652;51.526;5.080;2023-03-31T12:59:32;7.40;;;1.90;;
75073;SDS011;63652;51.526;5.080;2023-03-31T13:02:32;5.32;;;1.63;;
75073;SDS011;63652;51.526;5.080;2023-03-31T13:04:50;5.30;;;1.27;;
75073;SDS011;63652;51.526;5.080;2023-03-31T13:12:52;7.45;;;1.50;;
75073;SDS011;63652;51.526;5.080;2023-03-31T13:15:22;8.00;;;1.63;;
75073;SDS011;63652;51.526;5.080;2023-03-31T13:17:53;8.73;;;1.45;;
75073;SDS011;63652;51.526;5.080;2023-03-31T13:25:43;10.75;;;1.25;;
75073;SDS011;63652;51.526;5.080;2023-03-31T13:28:09;8.20;;;1.35;;
75073;SDS011;63652;51.526;5.080;2023-03-31T13:33:04;7.53;;;1.35;;
75073;SDS011;63652;51.526;5.080;2023-03-31T13:35:36;4.18;;;0.70;;
75073;SDS011;63652;51.526;5.080;2023-03-31T13:40:53;5.50;;;1.30;;
75073;SDS011;63652;51.526;5.080;2023-03-31T13:46:29;5.93;;;1.50;;
75073;SDS011;63652;51.526;5.080;2023-03-31T13:51:49;10.20;;;1.77;;
75073;SDS011;63652;51.526;5.080;2023-03-31T14:03:16;4.95;;;1.00;;
75073;SDS011;63652;51.526;5.080;2023-03-31T14:11:14;5.70;;;1.38;;
75073;SDS011;63652;51.526;5.080;2023-03-31T14:16:47;4.50;;;1.33;;
75073;SDS011;63652;51.526;5.080;2023-03-31T14:41:18;3.90;;;1.23;;
75073;SDS011;63652;51.526;5.080;2023-03-31T14:43:47;2.13;;;0.60;;
75073;SDS011;63652;51.526;5.080;2023-03-31T14:46:17;2.70;;;0.60;;
75073;SDS011;63652;51.526;5.080;2023-03-31T14:48:46;3.78;;;1.05;;
75073;SDS011;63652;51.526;5.080;2023-03-31T14:51:24;2.70;;;0.95;;
75073;SDS011;63652;51.526;5.080;2023-03-31T14:53:57;5.35;;;1.10;;
75073;SDS011;63652;51.526;5.080;2023-03-31T14:56:29;4.10;;;0.85;;
75073;SDS011;63652;51.526;5.080;2023-03-31T14:58:59;3.67;;;0.88;;
75073;SDS011;63652;51.526;5.080;2023-03-31T15:01:27;1.58;;;0.75;;
75073;SDS011;63652;51.526;5.080;2023-03-31T15:04:00;1.95;;;0.43;;
75073;SDS011;63652;51.526;5.080;2023-03-31T15:06:33;2.55;;;0.50;;
75073;SDS011;63652;51.526;5.080;2023-03-31T15:09:00;2.83;;;0.93;;
75073;SDS011;63652;51.526;5.080;2023-03-31T15:11:27;2.70;;;0.75;;
75073;SDS011;63652;51.526;5.080;2023-03-31T15:13:54;2.90;;;0.50;;
75073;SDS011;63652;51.526;5.080;2023-03-31T15:18:55;4.55;;;1.17;;
75073;SDS011;63652;51.526;5.080;2023-03-31T15:21:22;3.67;;;0.80;;
75073;SDS011;63652;51.526;5.080;2023-03-31T15:23:52;2.25;;;0.82;;
75073;SDS011;63652;51.526;5.080;2023-03-31T15:26:22;1.80;;;0.52;;
75073;SDS011;63652;51.526;5.080;2023-03-31T15:28:54;2.08;;;0.38;;
75073;SDS011;63652;51.526;5.080;2023-03-31T15:31:31;1.33;;;0.52;;
75073;SDS011;63652;51.526;5.080;2023-03-31T15:33:57;3.55;;;0.65;;
75073;SDS011;63652;51.526;5.080;2023-03-31T15:36:22;1.60;;;0.60;;
75073;SDS011;63652;51.526;5.080;2023-03-31T15:38:56;1.00;;;0.40;;
75073;SDS011;63652;51.526;5.080;2023-03-31T15:41:22;1.25;;;0.50;;
75073;SDS011;63652;51.526;5.080;2023-03-31T15:43:48;1.25;;;0.50;;
75073;SDS011;63652;51.526;5.080;2023-03-31T15:49:02;2.60;;;0.80;;
75073;SDS011;63652;51.526;5.080;2023-03-31T15:51:29;1.83;;;0.40;;
75073;SDS011;63652;51.526;5.080;2023-03-31T15:53:56;1.67;;;0.40;;
75073;SDS011;63652;51.526;5.080;2023-03-31T15:56:29;2.60;;;0.22;;
75073;SDS011;63652;51.526;5.080;2023-03-31T15:59:00;0.75;;;0.20;;
75073;SDS011;63652;51.526;5.080;2023-03-31T16:01:42;3.35;;;0.50;;
75073;SDS011;63652;51.526;5.080;2023-03-31T16:04:09;2.40;;;0.40;;
75073;SDS011;63652;51.526;5.080;2023-03-31T16:09:25;1.10;;;0.52;;
75073;SDS011;63652;51.526;5.080;2023-03-31T16:12:20;1.65;;;0.52;;
75073;SDS011;63652;51.526;5.080;2023-03-31T16:15:01;2.70;;;0.60;;
75073;SDS011;63652;51.526;5.080;2023-03-31T16:17:44;0.93;;;0.40;;
75073;SDS011;63652;51.526;5.080;2023-03-31T16:20:16;1.98;;;0.32;;
75073;SDS011;63652;51.526;5.080;2023-03-31T16:22:46;1.33;;;0.40;;
75073;SDS011;63652;51.526;5.080;2023-03-31T16:25:15;0.88;;;0.30;;
75073;SDS011;63652;51.526;5.080;2023-03-31T16:27:44;3.17;;;0.68;;
75073;SDS011;63652;51.526;5.080;2023-03-31T16:30:13;2.33;;;0.82;;
75073;SDS011;63652;51.526;5.080;2023-03-31T16:32:59;1.92;;;0.40;;
75073;SDS011;63652;51.526;5.080;2023-03-31T16:35:33;1.30;;;0.50;;
75073;SDS011;63652;51.526;5.080;2023-03-31T16:38:00;3.55;;;0.90;;
75073;SDS011;63652;51.526;5.080;2023-03-31T16:40:27;5.00;;;0.80;;
75073;SDS011;63652;51.526;5.080;2023-03-31T16:43:07;2.63;;;0.88;;
75073;SDS011;63652;51.526;5.080;2023-03-31T16:45:35;5.55;;;1.33;;
75073;SDS011;63652;51.526;5.080;2023-03-31T16:48:01;1.85;;;0.70;;
75073;SDS011;63652;51.526;5.080;2023-03-31T16:50:27;1.90;;;0.73;;
75073;SDS011;63652;51.526;5.080;2023-03-31T16:52:52;4.32;;;0.98;;
75073;SDS011;63652;51.526;5.080;2023-03-31T16:55:17;2.75;;;0.98;;
75073;SDS011;63652;51.526;5.080;2023-03-31T16:57:43;4.25;;;0.90;;
75073;SDS011;63652;51.526;5.080;2023-03-31T17:00:08;4.53;;;1.30;;
75073;SDS011;63652;51.526;5.080;2023-03-31T17:02:35;5.35;;;1.27;;
75073;SDS011;63652;51.526;5.080;2023-03-31T17:05:01;5.47;;;1.15;;
75073;SDS011;63652;51.526;5.080;2023-03-31T17:07:26;7.05;;;1.30;;
75073;SDS011;63652;51.526;5.080;2023-03-31T17:09:51;5.57;;;1.55;;
75073;SDS011;63652;51.526;5.080;2023-03-31T17:12:17;3.42;;;1.00;;
75073;SDS011;63652;51.526;5.080;2023-03-31T17:14:42;5.60;;;1.38;;
75073;SDS011;63652;51.526;5.080;2023-03-31T17:17:08;5.35;;;1.23;;
75073;SDS011;63652;51.526;5.080;2023-03-31T17:19:34;9.75;;;1.77;;
75073;SDS011;63652;51.526;5.080;2023-03-31T17:21:59;5.80;;;1.40;;
75073;SDS011;63652;51.526;5.080;2023-03-31T17:24:26;4.95;;;1.35;;
75073;SDS011;63652;51.526;5.080;2023-03-31T17:26:52;4.43;;;1.42;;
75073;SDS011;63652;51.526;5.080;2023-03-31T17:29:17;7.32;;;1.58;;
75073;SDS011;63652;51.526;5.080;2023-03-31T17:31:42;6.97;;;1.92;;
75073;SDS011;63652;51.526;5.080;2023-03-31T17:34:08;7.60;;;1.63;;
75073;SDS011;63652;51.526;5.080;2023-03-31T17:36:34;5.68;;;1.20;;
75073;SDS011;63652;51.526;5.080;2023-03-31T17:38:59;7.30;;;1.80;;
75073;SDS011;63652;51.526;5.080;2023-03-31T17:41:26;6.35;;;2.50;;
75073;SDS011;63652;51.526;5.080;2023-03-31T17:43:53;13.98;;;1.60;;
75073;SDS011;63652;51.526;5.080;2023-03-31T17:46:19;5.28;;;1.80;;
75073;SDS011;63652;51.526;5.080;2023-03-31T17:48:44;4.10;;;1.77;;
75073;SDS011;63652;51.526;5.080;2023-03-31T17:51:11;3.88;;;1.20;;
75073;SDS011;63652;51.526;5.080;2023-03-31T17:53:39;7.60;;;1.63;;
75073;SDS011;63652;51.526;5.080;2023-03-31T17:56:05;4.43;;;1.80;;
75073;SDS011;63652;51.526;5.080;2023-03-31T17:58:34;6.32;;;1.40;;
75073;SDS011;63652;51.526;5.080;2023-03-31T18:01:00;6.18;;;1.77;;
75073;SDS011;63652;51.526;5.080;2023-03-31T18:03:28;5.80;;;1.42;;
75073;SDS011;63652;51.526;5.080;2023-03-31T18:05:54;5.80;;;1.90;;